sensor_id;sensor_type;location;lat;lon;timestamp;P1;durP1;ratioP1;P2;durP2;ratioP2
71814;SDS011;59659;41.520;23.794;2023-05-10T00:00:43;3.97;;;2.10;;
71814;SDS011;59659;41.520;23.794;2023-05-10T00:01:54;5.17;;;2.73;;
71814;SDS011;59659;41.520;23.794;2023-05-10T00:03:06;6.03;;;2.20;;
71814;SDS011;59659;41.520;23.794;2023-05-10T00:04:17;3.77;;;2.50;;
71814;SDS011;59659;41.520;23.794;2023-05-10T00:05:29;4.13;;;2.37;;
71814;SDS011;59659;41.520;23.794;2023-05-10T00:06:41;3.80;;;2.53;;
71814;SDS011;59659;41.520;23.794;2023-05-10T00:07:52;3.87;;;2.63;;
71814;SDS011;59659;41.520;23.794;2023-05-10T00:09:03;3.50;;;2.40;;
71814;SDS011;59659;41.520;23.794;2023-05-10T00:10:15;5.27;;;2.63;;
71814;SDS011;59659;41.520;23.794;2023-05-10T00:11:27;3.92;;;2.47;;
71814;SDS011;59659;41.520;23.794;2023-05-10T00:12:38;3.80;;;2.27;;
71814;SDS011;59659;41.520;23.794;2023-05-10T00:13:50;10.60;;;3.25;;
71814;SDS011;59659;41.520;23.794;2023-05-10T00:15:01;4.13;;;2.33;;
71814;SDS011;59659;41.520;23.794;2023-05-10T00:16:14;4.70;;;3.13;;
71814;SDS011;59659;41.520;23.794;2023-05-10T00:17:25;5.60;;;2.30;;
71814;SDS011;59659;41.520;23.794;2023-05-10T00:18:37;4.03;;;2.47;;
71814;SDS011;59659;41.520;23.794;2023-05-10T00:19:48;2.87;;;2.03;;
71814;SDS011;59659;41.520;23.794;2023-05-10T00:21:00;3.60;;;2.30;;
71814;SDS011;59659;41.520;23.794;2023-05-10T00:22:11;4.53;;;2.65;;
71814;SDS011;59659;41.520;23.794;2023-05-10T00:23:22;5.07;;;2.30;;
71814;SDS011;59659;41.520;23.794;2023-05-10T00:24:34;3.50;;;2.00;;
71814;SDS011;59659;41.520;23.794;2023-05-10T00:25:45;4.53;;;2.00;;
71814;SDS011;59659;41.520;23.794;2023-05-10T00:26:57;2.53;;;1.60;;
71814;SDS011;59659;41.520;23.794;2023-05-10T00:28:08;8.80;;;1.97;;
71814;SDS011;59659;41.520;23.794;2023-05-10T00:29:20;2.33;;;1.60;;
71814;SDS011;59659;41.520;23.794;2023-05-10T00:30:31;2.60;;;1.70;;
71814;SDS011;59659;41.520;23.794;2023-05-10T00:31:43;2.47;;;1.60;;
71814;SDS011;59659;41.520;23.794;2023-05-10T00:32:54;3.33;;;1.70;;
71814;SDS011;59659;41.520;23.794;2023-05-10T00:34:06;5.67;;;2.30;;
71814;SDS011;59659;41.520;23.794;2023-05-10T00:35:17;2.63;;;1.63;;
71814;SDS011;59659;41.520;23.794;2023-05-10T00:36:29;3.00;;;1.90;;
71814;SDS011;59659;41.520;23.794;2023-05-10T00:37:41;3.80;;;2.20;;
71814;SDS011;59659;41.520;23.794;2023-05-10T00:38:52;4.53;;;2.00;;
71814;SDS011;59659;41.520;23.794;2023-05-10T00:40:04;3.30;;;1.83;;
71814;SDS011;59659;41.520;23.794;2023-05-10T00:41:16;3.40;;;1.90;;
71814;SDS011;59659;41.520;23.794;2023-05-10T00:42:27;3.80;;;2.27;;
71814;SDS011;59659;41.520;23.794;2023-05-10T00:43:39;3.33;;;1.97;;
71814;SDS011;59659;41.520;23.794;2023-05-10T00:44:50;3.73;;;2.30;;
71814;SDS011;59659;41.520;23.794;2023-05-10T00:46:02;4.57;;;2.47;;
71814;SDS011;59659;41.520;23.794;2023-05-10T00:47:14;3.53;;;2.17;;
71814;SDS011;59659;41.520;23.794;2023-05-10T00:48:26;4.63;;;2.80;;
71814;SDS011;59659;41.520;23.794;2023-05-10T00:49:37;5.30;;;2.33;;
71814;SDS011;59659;41.520;23.794;2023-05-10T00:50:49;3.17;;;1.87;;
71814;SDS011;59659;41.520;23.794;2023-05-10T00:52:00;7.20;;;2.45;;
71814;SDS011;59659;41.520;23.794;2023-05-10T00:53:13;3.90;;;2.47;;
71814;SDS011;59659;41.520;23.794;2023-05-10T00:54:25;3.13;;;1.80;;
71814;SDS011;59659;41.520;23.794;2023-05-10T00:55:36;6.10;;;2.93;;
71814;SDS011;59659;41.520;23.794;2023-05-10T00:56:48;5.00;;;2.67;;
71814;SDS011;59659;41.520;23.794;2023-05-10T00:58:00;5.10;;;2.97;;
71814;SDS011;59659;41.520;23.794;2023-05-10T00:59:12;2.90;;;2.10;;
71814;SDS011;59659;41.520;23.794;2023-05-10T01:00:24;5.90;;;1.90;;
71814;SDS011;59659;41.520;23.794;2023-05-10T01:01:36;4.07;;;2.37;;
71814;SDS011;59659;41.520;23.794;2023-05-10T01:02:48;3.78;;;2.20;;
71814;SDS011;59659;41.520;23.794;2023-05-10T01:04:01;3.95;;;2.22;;
71814;SDS011;59659;41.520;23.794;2023-05-10T01:05:14;4.60;;;2.67;;
71814;SDS011;59659;41.520;23.794;2023-05-10T01:06:26;4.60;;;2.17;;
71814;SDS011;59659;41.520;23.794;2023-05-10T01:07:38;6.10;;;2.70;;
71814;SDS011;59659;41.520;23.794;2023-05-10T01:08:50;3.57;;;2.53;;
71814;SDS011;59659;41.520;23.794;2023-05-10T01:10:01;4.20;;;2.65;;
71814;SDS011;59659;41.520;23.794;2023-05-10T01:11:13;4.28;;;2.65;;
71814;SDS011;59659;41.520;23.794;2023-05-10T01:12:24;4.97;;;3.00;;
71814;SDS011;59659;41.520;23.794;2023-05-10T01:13:37;3.17;;;2.17;;
71814;SDS011;59659;41.520;23.794;2023-05-10T01:14:50;3.97;;;2.50;;
71814;SDS011;59659;41.520;23.794;2023-05-10T01:16:02;4.33;;;2.53;;
71814;SDS011;59659;41.520;23.794;2023-05-10T01:17:14;5.80;;;2.53;;
71814;SDS011;59659;41.520;23.794;2023-05-10T01:18:27;5.25;;;2.53;;
71814;SDS011;59659;41.520;23.794;2023-05-10T01:19:40;3.83;;;2.30;;
71814;SDS011;59659;41.520;23.794;2023-05-10T01:20:55;4.28;;;2.22;;
71814;SDS011;59659;41.520;23.794;2023-05-10T01:22:15;5.32;;;2.63;;
71814;SDS011;59659;41.520;23.794;2023-05-10T01:23:35;2.78;;;1.95;;
71814;SDS011;59659;41.520;23.794;2023-05-10T01:29:08;4.77;;;2.57;;
71814;SDS011;59659;41.520;23.794;2023-05-10T01:33:11;3.88;;;1.67;;
71814;SDS011;59659;41.520;23.794;2023-05-10T01:34:34;3.35;;;1.70;;
71814;SDS011;59659;41.520;23.794;2023-05-10T01:36:08;3.25;;;1.98;;
71814;SDS011;59659;41.520;23.794;2023-05-10T01:37:21;4.57;;;2.15;;
71814;SDS011;59659;41.520;23.794;2023-05-10T01:39:09;3.67;;;2.05;;
71814;SDS011;59659;41.520;23.794;2023-05-10T01:43:00;6.65;;;2.03;;
71814;SDS011;59659;41.520;23.794;2023-05-10T01:47:11;4.00;;;2.28;;
71814;SDS011;59659;41.520;23.794;2023-05-10T01:48:24;4.72;;;2.65;;
71814;SDS011;59659;41.520;23.794;2023-05-10T01:49:38;5.55;;;2.83;;
71814;SDS011;59659;41.520;23.794;2023-05-10T01:50:51;3.33;;;1.90;;
71814;SDS011;59659;41.520;23.794;2023-05-10T01:52:08;4.13;;;2.20;;
71814;SDS011;59659;41.520;23.794;2023-05-10T01:53:20;4.75;;;2.83;;
71814;SDS011;59659;41.520;23.794;2023-05-10T01:54:32;3.20;;;2.10;;
71814;SDS011;59659;41.520;23.794;2023-05-10T01:55:46;5.47;;;2.42;;
71814;SDS011;59659;41.520;23.794;2023-05-10T01:57:02;9.25;;;2.67;;
71814;SDS011;59659;41.520;23.794;2023-05-10T01:58:16;3.40;;;1.85;;
71814;SDS011;59659;41.520;23.794;2023-05-10T01:59:29;3.37;;;1.90;;
71814;SDS011;59659;41.520;23.794;2023-05-10T02:00:44;5.47;;;2.28;;
71814;SDS011;59659;41.520;23.794;2023-05-10T02:01:57;3.65;;;2.08;;
71814;SDS011;59659;41.520;23.794;2023-05-10T02:03:10;3.63;;;1.80;;
71814;SDS011;59659;41.520;23.794;2023-05-10T02:04:22;2.53;;;1.35;;
71814;SDS011;59659;41.520;23.794;2023-05-10T02:05:34;2.83;;;1.80;;
71814;SDS011;59659;41.520;23.794;2023-05-10T02:06:47;2.87;;;1.40;;
71814;SDS011;59659;41.520;23.794;2023-05-10T02:07:59;2.78;;;1.75;;
71814;SDS011;59659;41.520;23.794;2023-05-10T02:09:12;3.87;;;1.93;;
71814;SDS011;59659;41.520;23.794;2023-05-10T02:10:24;4.40;;;1.70;;
71814;SDS011;59659;41.520;23.794;2023-05-10T02:11:37;3.13;;;1.77;;
71814;SDS011;59659;41.520;23.794;2023-05-10T02:12:49;2.97;;;1.90;;
71814;SDS011;59659;41.520;23.794;2023-05-10T02:14:01;2.83;;;1.67;;
71814;SDS011;59659;41.520;23.794;2023-05-10T02:15:15;2.50;;;1.67;;
71814;SDS011;59659;41.520;23.794;2023-05-10T02:16:28;3.95;;;1.95;;
71814;SDS011;59659;41.520;23.794;2023-05-10T02:17:42;2.50;;;1.60;;
71814;SDS011;59659;41.520;23.794;2023-05-10T02:18:53;2.57;;;1.70;;
71814;SDS011;59659;41.520;23.794;2023-05-10T02:20:06;2.87;;;1.83;;
71814;SDS011;59659;41.520;23.794;2023-05-10T02:21:17;3.00;;;2.03;;
71814;SDS011;59659;41.520;23.794;2023-05-10T02:22:30;6.23;;;2.17;;
71814;SDS011;59659;41.520;23.794;2023-05-10T02:23:42;5.90;;;2.15;;
71814;SDS011;59659;41.520;23.794;2023-05-10T02:24:54;2.55;;;1.55;;
71814;SDS011;59659;41.520;23.794;2023-05-10T02:26:07;2.22;;;1.65;;
71814;SDS011;59659;41.520;23.794;2023-05-10T02:27:19;5.37;;;1.90;;
71814;SDS011;59659;41.520;23.794;2023-05-10T02:28:31;3.37;;;2.00;;
71814;SDS011;59659;41.520;23.794;2023-05-10T02:29:43;3.07;;;1.80;;
71814;SDS011;59659;41.520;23.794;2023-05-10T02:30:55;2.40;;;1.53;;
71814;SDS011;59659;41.520;23.794;2023-05-10T02:32:07;3.30;;;2.10;;
71814;SDS011;59659;41.520;23.794;2023-05-10T02:33:20;5.40;;;2.13;;
71814;SDS011;59659;41.520;23.794;2023-05-10T02:34:33;3.00;;;2.00;;
71814;SDS011;59659;41.520;23.794;2023-05-10T02:35:44;3.73;;;2.13;;
71814;SDS011;59659;41.520;23.794;2023-05-10T02:36:56;2.50;;;1.80;;
71814;SDS011;59659;41.520;23.794;2023-05-10T02:38:08;5.73;;;2.00;;
71814;SDS011;59659;41.520;23.794;2023-05-10T02:39:20;3.33;;;2.30;;
71814;SDS011;59659;41.520;23.794;2023-05-10T02:40:32;4.82;;;2.47;;
71814;SDS011;59659;41.520;23.794;2023-05-10T02:41:44;3.93;;;2.37;;
71814;SDS011;59659;41.520;23.794;2023-05-10T02:42:56;4.95;;;2.38;;
71814;SDS011;59659;41.520;23.794;2023-05-10T02:44:08;3.78;;;2.47;;
71814;SDS011;59659;41.520;23.794;2023-05-10T02:45:22;4.30;;;2.43;;
71814;SDS011;59659;41.520;23.794;2023-05-10T02:46:34;4.88;;;2.60;;
71814;SDS011;59659;41.520;23.794;2023-05-10T02:47:47;5.35;;;2.33;;
71814;SDS011;59659;41.520;23.794;2023-05-10T02:48:59;2.93;;;1.97;;
71814;SDS011;59659;41.520;23.794;2023-05-10T02:50:10;2.97;;;2.10;;
71814;SDS011;59659;41.520;23.794;2023-05-10T02:51:23;2.73;;;1.93;;
71814;SDS011;59659;41.520;23.794;2023-05-10T02:52:40;3.38;;;1.88;;
71814;SDS011;59659;41.520;23.794;2023-05-10T02:53:53;4.18;;;2.10;;
71814;SDS011;59659;41.520;23.794;2023-05-10T02:55:05;2.92;;;2.00;;
71814;SDS011;59659;41.520;23.794;2023-05-10T02:56:20;5.05;;;2.90;;
71814;SDS011;59659;41.520;23.794;2023-05-10T02:57:34;4.22;;;2.13;;
71814;SDS011;59659;41.520;23.794;2023-05-10T02:58:49;5.05;;;2.63;;
71814;SDS011;59659;41.520;23.794;2023-05-10T03:00:01;4.82;;;2.80;;
71814;SDS011;59659;41.520;23.794;2023-05-10T03:01:14;3.60;;;2.20;;
71814;SDS011;59659;41.520;23.794;2023-05-10T03:02:26;3.90;;;2.20;;
71814;SDS011;59659;41.520;23.794;2023-05-10T03:03:38;8.20;;;2.67;;
71814;SDS011;59659;41.520;23.794;2023-05-10T03:04:49;3.85;;;2.25;;
71814;SDS011;59659;41.520;23.794;2023-05-10T03:06:01;5.47;;;2.67;;
71814;SDS011;59659;41.520;23.794;2023-05-10T03:07:12;6.43;;;2.40;;
71814;SDS011;59659;41.520;23.794;2023-05-10T03:08:24;4.57;;;2.13;;
71814;SDS011;59659;41.520;23.794;2023-05-10T03:09:36;4.18;;;2.38;;
71814;SDS011;59659;41.520;23.794;2023-05-10T03:10:50;4.35;;;2.30;;
71814;SDS011;59659;41.520;23.794;2023-05-10T03:12:11;4.15;;;2.33;;
71814;SDS011;59659;41.520;23.794;2023-05-10T03:17:18;2.60;;;1.60;;
71814;SDS011;59659;41.520;23.794;2023-05-10T03:19:58;3.65;;;2.13;;
71814;SDS011;59659;41.520;23.794;2023-05-10T03:21:10;5.25;;;2.67;;
71814;SDS011;59659;41.520;23.794;2023-05-10T03:22:29;5.07;;;2.35;;
71814;SDS011;59659;41.520;23.794;2023-05-10T03:23:51;2.80;;;2.00;;
71814;SDS011;59659;41.520;23.794;2023-05-10T03:25:07;4.45;;;2.10;;
71814;SDS011;59659;41.520;23.794;2023-05-10T03:26:21;3.90;;;1.90;;
71814;SDS011;59659;41.520;23.794;2023-05-10T03:27:35;5.05;;;2.20;;
71814;SDS011;59659;41.520;23.794;2023-05-10T03:28:46;4.18;;;2.17;;
71814;SDS011;59659;41.520;23.794;2023-05-10T03:29:59;3.90;;;2.10;;
71814;SDS011;59659;41.520;23.794;2023-05-10T03:31:11;2.60;;;1.77;;
71814;SDS011;59659;41.520;23.794;2023-05-10T03:32:23;5.65;;;2.35;;
71814;SDS011;59659;41.520;23.794;2023-05-10T03:33:35;2.83;;;2.17;;
71814;SDS011;59659;41.520;23.794;2023-05-10T03:34:46;3.33;;;2.20;;
71814;SDS011;59659;41.520;23.794;2023-05-10T03:35:58;5.07;;;2.10;;
71814;SDS011;59659;41.520;23.794;2023-05-10T03:37:09;3.53;;;2.10;;
71814;SDS011;59659;41.520;23.794;2023-05-10T03:38:21;3.00;;;2.00;;
71814;SDS011;59659;41.520;23.794;2023-05-10T03:39:32;5.82;;;1.95;;
71814;SDS011;59659;41.520;23.794;2023-05-10T03:40:44;4.28;;;2.60;;
71814;SDS011;59659;41.520;23.794;2023-05-10T03:41:55;4.90;;;2.70;;
71814;SDS011;59659;41.520;23.794;2023-05-10T03:43:07;3.45;;;2.38;;
71814;SDS011;59659;41.520;23.794;2023-05-10T03:44:18;2.40;;;1.83;;
71814;SDS011;59659;41.520;23.794;2023-05-10T03:45:30;3.78;;;2.10;;
71814;SDS011;59659;41.520;23.794;2023-05-10T03:46:42;3.13;;;2.30;;
71814;SDS011;59659;41.520;23.794;2023-05-10T03:47:53;4.45;;;2.08;;
71814;SDS011;59659;41.520;23.794;2023-05-10T03:49:05;4.60;;;1.88;;
71814;SDS011;59659;41.520;23.794;2023-05-10T03:50:16;6.05;;;2.72;;
71814;SDS011;59659;41.520;23.794;2023-05-10T03:51:28;4.78;;;2.08;;
71814;SDS011;59659;41.520;23.794;2023-05-10T03:52:42;3.45;;;2.17;;
71814;SDS011;59659;41.520;23.794;2023-05-10T03:53:54;4.33;;;1.97;;
71814;SDS011;59659;41.520;23.794;2023-05-10T03:55:06;8.13;;;1.75;;
71814;SDS011;59659;41.520;23.794;2023-05-10T03:56:17;4.05;;;2.22;;
71814;SDS011;59659;41.520;23.794;2023-05-10T03:57:29;3.70;;;2.35;;
71814;SDS011;59659;41.520;23.794;2023-05-10T03:58:40;2.73;;;2.00;;
71814;SDS011;59659;41.520;23.794;2023-05-10T03:59:52;5.68;;;2.35;;
71814;SDS011;59659;41.520;23.794;2023-05-10T04:01:03;3.17;;;1.93;;
71814;SDS011;59659;41.520;23.794;2023-05-10T04:02:15;3.90;;;2.40;;
71814;SDS011;59659;41.520;23.794;2023-05-10T04:03:26;4.53;;;2.45;;
71814;SDS011;59659;41.520;23.794;2023-05-10T04:04:38;10.60;;;6.95;;
71814;SDS011;59659;41.520;23.794;2023-05-10T04:05:57;5.73;;;3.33;;
71814;SDS011;59659;41.520;23.794;2023-05-10T04:07:09;6.00;;;3.33;;
71814;SDS011;59659;41.520;23.794;2023-05-10T04:08:21;8.77;;;5.55;;
71814;SDS011;59659;41.520;23.794;2023-05-10T04:09:32;8.47;;;4.50;;
71814;SDS011;59659;41.520;23.794;2023-05-10T04:10:44;23.37;;;10.70;;
71814;SDS011;59659;41.520;23.794;2023-05-10T04:11:55;36.30;;;17.45;;
71814;SDS011;59659;41.520;23.794;2023-05-10T04:13:07;18.42;;;10.27;;
71814;SDS011;59659;41.520;23.794;2023-05-10T04:14:19;40.72;;;18.48;;
71814;SDS011;59659;41.520;23.794;2023-05-10T04:15:30;25.57;;;11.30;;
71814;SDS011;59659;41.520;23.794;2023-05-10T04:16:41;16.77;;;7.60;;
71814;SDS011;59659;41.520;23.794;2023-05-10T04:17:53;20.67;;;10.60;;
71814;SDS011;59659;41.520;23.794;2023-05-10T04:19:05;12.45;;;5.55;;
71814;SDS011;59659;41.520;23.794;2023-05-10T04:20:17;8.77;;;4.70;;
71814;SDS011;59659;41.520;23.794;2023-05-10T04:21:28;6.67;;;3.50;;
71814;SDS011;59659;41.520;23.794;2023-05-10T04:22:40;8.50;;;4.43;;
71814;SDS011;59659;41.520;23.794;2023-05-10T04:23:51;6.38;;;3.88;;
71814;SDS011;59659;41.520;23.794;2023-05-10T04:25:03;3.85;;;2.78;;
71814;SDS011;59659;41.520;23.794;2023-05-10T04:26:15;2.70;;;1.80;;
71814;SDS011;59659;41.520;23.794;2023-05-10T04:27:27;6.55;;;2.85;;
71814;SDS011;59659;41.520;23.794;2023-05-10T04:28:38;8.13;;;4.93;;
71814;SDS011;59659;41.520;23.794;2023-05-10T04:29:50;9.05;;;4.78;;
71814;SDS011;59659;41.520;23.794;2023-05-10T04:31:02;6.57;;;3.72;;
71814;SDS011;59659;41.520;23.794;2023-05-10T04:32:14;6.78;;;2.95;;
71814;SDS011;59659;41.520;23.794;2023-05-10T04:33:27;3.83;;;2.47;;
71814;SDS011;59659;41.520;23.794;2023-05-10T04:34:38;5.55;;;3.05;;
71814;SDS011;59659;41.520;23.794;2023-05-10T04:35:50;5.25;;;2.70;;
71814;SDS011;59659;41.520;23.794;2023-05-10T04:37:01;4.78;;;2.20;;
71814;SDS011;59659;41.520;23.794;2023-05-10T04:38:13;5.40;;;2.75;;
71814;SDS011;59659;41.520;23.794;2023-05-10T04:39:25;4.28;;;2.42;;
71814;SDS011;59659;41.520;23.794;2023-05-10T04:40:37;3.37;;;2.00;;
71814;SDS011;59659;41.520;23.794;2023-05-10T04:41:48;5.13;;;2.78;;
71814;SDS011;59659;41.520;23.794;2023-05-10T04:43:00;4.32;;;2.28;;
71814;SDS011;59659;41.520;23.794;2023-05-10T04:44:11;3.22;;;2.13;;
71814;SDS011;59659;41.520;23.794;2023-05-10T04:45:23;3.88;;;2.15;;
71814;SDS011;59659;41.520;23.794;2023-05-10T04:46:34;3.67;;;2.22;;
71814;SDS011;59659;41.520;23.794;2023-05-10T04:47:46;5.10;;;2.30;;
71814;SDS011;59659;41.520;23.794;2023-05-10T04:48:57;3.28;;;2.03;;
71814;SDS011;59659;41.520;23.794;2023-05-10T04:50:09;3.55;;;2.22;;
71814;SDS011;59659;41.520;23.794;2023-05-10T04:51:20;3.50;;;2.05;;
71814;SDS011;59659;41.520;23.794;2023-05-10T04:52:32;5.65;;;2.30;;
71814;SDS011;59659;41.520;23.794;2023-05-10T04:53:43;5.00;;;2.30;;
71814;SDS011;59659;41.520;23.794;2023-05-10T04:55:12;4.70;;;3.25;;
71814;SDS011;59659;41.520;23.794;2023-05-10T04:56:23;4.50;;;2.80;;
71814;SDS011;59659;41.520;23.794;2023-05-10T04:57:35;4.43;;;2.50;;
71814;SDS011;59659;41.520;23.794;2023-05-10T04:58:46;5.97;;;3.60;;
71814;SDS011;59659;41.520;23.794;2023-05-10T04:59:58;6.53;;;2.83;;
71814;SDS011;59659;41.520;23.794;2023-05-10T05:01:10;5.27;;;3.27;;
71814;SDS011;59659;41.520;23.794;2023-05-10T05:02:22;4.60;;;2.35;;
71814;SDS011;59659;41.520;23.794;2023-05-10T05:03:34;2.40;;;1.93;;
71814;SDS011;59659;41.520;23.794;2023-05-10T05:04:46;3.17;;;1.90;;
71814;SDS011;59659;41.520;23.794;2023-05-10T05:05:58;3.92;;;2.15;;
71814;SDS011;59659;41.520;23.794;2023-05-10T05:07:09;4.63;;;2.30;;
71814;SDS011;59659;41.520;23.794;2023-05-10T05:08:21;7.57;;;2.15;;
71814;SDS011;59659;41.520;23.794;2023-05-10T05:09:32;3.57;;;2.03;;
71814;SDS011;59659;41.520;23.794;2023-05-10T05:10:44;2.65;;;1.80;;
71814;SDS011;59659;41.520;23.794;2023-05-10T05:11:55;2.27;;;1.47;;
71814;SDS011;59659;41.520;23.794;2023-05-10T05:13:07;4.35;;;2.35;;
71814;SDS011;59659;41.520;23.794;2023-05-10T05:14:18;4.05;;;2.67;;
71814;SDS011;59659;41.520;23.794;2023-05-10T05:15:32;4.50;;;1.70;;
71814;SDS011;59659;41.520;23.794;2023-05-10T05:16:43;3.72;;;2.20;;
71814;SDS011;59659;41.520;23.794;2023-05-10T05:17:55;2.10;;;1.58;;
71814;SDS011;59659;41.520;23.794;2023-05-10T05:19:06;3.38;;;2.17;;
71814;SDS011;59659;41.520;23.794;2023-05-10T05:20:18;5.03;;;2.60;;
71814;SDS011;59659;41.520;23.794;2023-05-10T05:21:30;3.30;;;2.22;;
71814;SDS011;59659;41.520;23.794;2023-05-10T05:22:43;2.92;;;1.83;;
71814;SDS011;59659;41.520;23.794;2023-05-10T05:23:54;3.25;;;1.90;;
71814;SDS011;59659;41.520;23.794;2023-05-10T05:25:06;3.95;;;2.20;;
71814;SDS011;59659;41.520;23.794;2023-05-10T05:26:17;3.53;;;2.22;;
71814;SDS011;59659;41.520;23.794;2023-05-10T05:27:29;3.00;;;2.05;;
71814;SDS011;59659;41.520;23.794;2023-05-10T05:28:40;4.40;;;2.22;;
71814;SDS011;59659;41.520;23.794;2023-05-10T05:29:55;5.70;;;2.57;;
71814;SDS011;59659;41.520;23.794;2023-05-10T05:31:07;2.95;;;2.00;;
71814;SDS011;59659;41.520;23.794;2023-05-10T05:32:19;6.72;;;2.35;;
71814;SDS011;59659;41.520;23.794;2023-05-10T05:33:30;3.50;;;1.90;;
71814;SDS011;59659;41.520;23.794;2023-05-10T05:34:43;4.53;;;2.50;;
71814;SDS011;59659;41.520;23.794;2023-05-10T05:35:55;3.03;;;2.10;;
71814;SDS011;59659;41.520;23.794;2023-05-10T05:37:07;2.27;;;1.80;;
71814;SDS011;59659;41.520;23.794;2023-05-10T05:38:18;2.63;;;1.80;;
71814;SDS011;59659;41.520;23.794;2023-05-10T05:39:30;3.33;;;2.47;;
71814;SDS011;59659;41.520;23.794;2023-05-10T05:40:41;2.43;;;1.63;;
71814;SDS011;59659;41.520;23.794;2023-05-10T05:41:52;4.43;;;2.13;;
71814;SDS011;59659;41.520;23.794;2023-05-10T05:43:04;2.70;;;2.17;;
71814;SDS011;59659;41.520;23.794;2023-05-10T05:44:15;8.77;;;4.57;;
71814;SDS011;59659;41.520;23.794;2023-05-10T05:45:27;15.43;;;7.27;;
71814;SDS011;59659;41.520;23.794;2023-05-10T05:46:38;12.17;;;6.43;;
71814;SDS011;59659;41.520;23.794;2023-05-10T05:47:50;18.87;;;10.13;;
71814;SDS011;59659;41.520;23.794;2023-05-10T05:49:02;6.47;;;3.67;;
71814;SDS011;59659;41.520;23.794;2023-05-10T05:50:13;12.13;;;5.40;;
71814;SDS011;59659;41.520;23.794;2023-05-10T05:51:25;10.97;;;5.40;;
71814;SDS011;59659;41.520;23.794;2023-05-10T05:52:36;12.53;;;6.20;;
71814;SDS011;59659;41.520;23.794;2023-05-10T05:53:48;12.07;;;6.73;;
71814;SDS011;59659;41.520;23.794;2023-05-10T05:54:59;18.93;;;10.00;;
71814;SDS011;59659;41.520;23.794;2023-05-10T05:56:11;19.97;;;10.70;;
71814;SDS011;59659;41.520;23.794;2023-05-10T05:57:22;10.30;;;5.70;;
71814;SDS011;59659;41.520;23.794;2023-05-10T05:58:34;6.80;;;4.47;;
71814;SDS011;59659;41.520;23.794;2023-05-10T05:59:45;8.67;;;4.80;;
71814;SDS011;59659;41.520;23.794;2023-05-10T06:00:57;7.17;;;5.00;;
71814;SDS011;59659;41.520;23.794;2023-05-10T06:02:08;10.13;;;4.90;;
71814;SDS011;59659;41.520;23.794;2023-05-10T06:03:20;10.13;;;4.77;;
71814;SDS011;59659;41.520;23.794;2023-05-10T06:04:32;7.13;;;3.77;;
71814;SDS011;59659;41.520;23.794;2023-05-10T06:05:43;6.70;;;3.20;;
71814;SDS011;59659;41.520;23.794;2023-05-10T06:06:55;4.70;;;2.77;;
71814;SDS011;59659;41.520;23.794;2023-05-10T06:08:06;4.77;;;3.00;;
71814;SDS011;59659;41.520;23.794;2023-05-10T06:09:18;4.03;;;2.60;;
71814;SDS011;59659;41.520;23.794;2023-05-10T06:10:29;5.10;;;2.67;;
71814;SDS011;59659;41.520;23.794;2023-05-10T06:11:41;4.00;;;2.60;;
71814;SDS011;59659;41.520;23.794;2023-05-10T06:12:53;4.43;;;2.67;;
71814;SDS011;59659;41.520;23.794;2023-05-10T06:14:04;5.30;;;2.80;;
71814;SDS011;59659;41.520;23.794;2023-05-10T06:15:18;3.70;;;2.57;;
71814;SDS011;59659;41.520;23.794;2023-05-10T06:16:30;5.97;;;3.10;;
71814;SDS011;59659;41.520;23.794;2023-05-10T06:17:41;4.47;;;2.57;;
71814;SDS011;59659;41.520;23.794;2023-05-10T06:18:54;5.20;;;2.97;;
71814;SDS011;59659;41.520;23.794;2023-05-10T06:20:06;6.73;;;3.47;;
71814;SDS011;59659;41.520;23.794;2023-05-10T06:21:18;6.97;;;3.30;;
71814;SDS011;59659;41.520;23.794;2023-05-10T06:22:29;5.43;;;3.77;;
71814;SDS011;59659;41.520;23.794;2023-05-10T06:23:41;6.67;;;3.67;;
71814;SDS011;59659;41.520;23.794;2023-05-10T06:24:52;4.93;;;3.53;;
71814;SDS011;59659;41.520;23.794;2023-05-10T06:26:03;3.00;;;2.43;;
71814;SDS011;59659;41.520;23.794;2023-05-10T06:27:16;5.37;;;2.23;;
71814;SDS011;59659;41.520;23.794;2023-05-10T06:28:28;3.60;;;2.60;;
71814;SDS011;59659;41.520;23.794;2023-05-10T06:29:39;3.20;;;2.07;;
71814;SDS011;59659;41.520;23.794;2023-05-10T06:30:51;3.10;;;1.80;;
71814;SDS011;59659;41.520;23.794;2023-05-10T06:32:02;3.43;;;2.40;;
71814;SDS011;59659;41.520;23.794;2023-05-10T06:33:14;3.40;;;2.08;;
71814;SDS011;59659;41.520;23.794;2023-05-10T06:34:27;2.47;;;2.00;;
71814;SDS011;59659;41.520;23.794;2023-05-10T06:35:38;5.40;;;2.80;;
71814;SDS011;59659;41.520;23.794;2023-05-10T06:36:50;5.23;;;2.83;;
71814;SDS011;59659;41.520;23.794;2023-05-10T06:38:01;5.53;;;2.50;;
71814;SDS011;59659;41.520;23.794;2023-05-10T06:39:13;3.00;;;1.90;;
71814;SDS011;59659;41.520;23.794;2023-05-10T06:40:25;4.03;;;1.87;;
71814;SDS011;59659;41.520;23.794;2023-05-10T06:41:36;2.80;;;1.83;;
71814;SDS011;59659;41.520;23.794;2023-05-10T06:42:48;2.37;;;1.57;;
71814;SDS011;59659;41.520;23.794;2023-05-10T06:43:59;3.57;;;2.43;;
71814;SDS011;59659;41.520;23.794;2023-05-10T06:45:11;2.73;;;1.87;;
71814;SDS011;59659;41.520;23.794;2023-05-10T06:46:22;4.27;;;2.43;;
71814;SDS011;59659;41.520;23.794;2023-05-10T06:47:34;3.57;;;2.00;;
71814;SDS011;59659;41.520;23.794;2023-05-10T06:48:49;26.80;;;15.57;;
71814;SDS011;59659;41.520;23.794;2023-05-10T06:50:00;10.67;;;4.77;;
71814;SDS011;59659;41.520;23.794;2023-05-10T06:51:13;9.77;;;5.20;;
71814;SDS011;59659;41.520;23.794;2023-05-10T06:52:24;7.50;;;5.20;;
71814;SDS011;59659;41.520;23.794;2023-05-10T06:53:36;54.33;;;26.03;;
71814;SDS011;59659;41.520;23.794;2023-05-10T06:54:47;53.40;;;25.70;;
71814;SDS011;59659;41.520;23.794;2023-05-10T06:55:59;14.27;;;8.43;;
71814;SDS011;59659;41.520;23.794;2023-05-10T06:57:11;17.30;;;9.27;;
71814;SDS011;59659;41.520;23.794;2023-05-10T06:58:40;13.23;;;6.70;;
71814;SDS011;59659;41.520;23.794;2023-05-10T06:59:52;8.03;;;4.63;;
71814;SDS011;59659;41.520;23.794;2023-05-10T07:01:04;14.23;;;4.33;;
71814;SDS011;59659;41.520;23.794;2023-05-10T07:02:16;5.27;;;2.40;;
71814;SDS011;59659;41.520;23.794;2023-05-10T07:03:28;5.53;;;2.93;;
71814;SDS011;59659;41.520;23.794;2023-05-10T07:04:39;5.77;;;2.97;;
71814;SDS011;59659;41.520;23.794;2023-05-10T07:05:51;6.70;;;3.57;;
71814;SDS011;59659;41.520;23.794;2023-05-10T07:07:02;3.10;;;2.30;;
71814;SDS011;59659;41.520;23.794;2023-05-10T07:08:14;5.10;;;2.90;;
71814;SDS011;59659;41.520;23.794;2023-05-10T07:09:25;4.17;;;2.30;;
71814;SDS011;59659;41.520;23.794;2023-05-10T07:10:37;11.50;;;3.27;;
71814;SDS011;59659;41.520;23.794;2023-05-10T07:11:49;5.47;;;3.17;;
71814;SDS011;59659;41.520;23.794;2023-05-10T07:13:00;5.33;;;2.63;;
71814;SDS011;59659;41.520;23.794;2023-05-10T07:14:12;10.60;;;3.80;;
71814;SDS011;59659;41.520;23.794;2023-05-10T07:15:24;3.60;;;2.20;;
71814;SDS011;59659;41.520;23.794;2023-05-10T07:16:35;2.93;;;2.10;;
71814;SDS011;59659;41.520;23.794;2023-05-10T07:17:47;16.47;;;8.90;;
71814;SDS011;59659;41.520;23.794;2023-05-10T07:18:59;6.60;;;3.83;;
71814;SDS011;59659;41.520;23.794;2023-05-10T07:20:11;8.00;;;2.33;;
71814;SDS011;59659;41.520;23.794;2023-05-10T07:21:22;6.73;;;3.17;;
71814;SDS011;59659;41.520;23.794;2023-05-10T07:22:39;8.60;;;4.73;;
71814;SDS011;59659;41.520;23.794;2023-05-10T07:23:51;8.80;;;4.00;;
71814;SDS011;59659;41.520;23.794;2023-05-10T07:25:03;21.60;;;9.10;;
71814;SDS011;59659;41.520;23.794;2023-05-10T07:26:14;20.27;;;10.57;;
71814;SDS011;59659;41.520;23.794;2023-05-10T07:27:26;29.43;;;14.23;;